sensor_id;sensor_type;location;lat;lon;timestamp;P1;durP1;ratioP1;P2;durP2;ratioP2
11328;SDS011;5719;42.714;23.732;2023-03-02T00:01:19;0.68;;;0.65;;
11328;SDS011;5719;42.714;23.732;2023-03-02T00:03:47;0.95;;;0.70;;
11328;SDS011;5719;42.714;23.732;2023-03-02T00:06:15;1.27;;;0.60;;
11328;SDS011;5719;42.714;23.732;2023-03-02T00:08:43;0.55;;;0.55;;
11328;SDS011;5719;42.714;23.732;2023-03-02T00:11:11;1.63;;;0.68;;
11328;SDS011;5719;42.714;23.732;2023-03-02T00:13:40;2.30;;;0.70;;
11328;SDS011;5719;42.714;23.732;2023-03-02T00:16:08;0.82;;;0.82;;
11328;SDS011;5719;42.714;23.732;2023-03-02T00:18:35;0.85;;;0.73;;
11328;SDS011;5719;42.714;23.732;2023-03-02T00:21:02;1.20;;;1.10;;
11328;SDS011;5719;42.714;23.732;2023-03-02T00:23:30;4.32;;;1.65;;
11328;SDS011;5719;42.714;23.732;2023-03-02T00:25:57;2.63;;;1.70;;
11328;SDS011;5719;42.714;23.732;2023-03-02T00:28:24;3.50;;;1.90;;
11328;SDS011;5719;42.714;23.732;2023-03-02T00:30:51;1.77;;;1.20;;
11328;SDS011;5719;42.714;23.732;2023-03-02T00:33:18;1.45;;;1.25;;
11328;SDS011;5719;42.714;23.732;2023-03-02T00:35:45;0.95;;;0.95;;
11328;SDS011;5719;42.714;23.732;2023-03-02T00:38:12;1.20;;;1.10;;
11328;SDS011;5719;42.714;23.732;2023-03-02T00:40:44;1.40;;;1.00;;
11328;SDS011;5719;42.714;23.732;2023-03-02T00:43:11;0.88;;;0.88;;
11328;SDS011;5719;42.714;23.732;2023-03-02T00:45:38;2.35;;;1.15;;
11328;SDS011;5719;42.714;23.732;2023-03-02T00:48:06;1.45;;;1.00;;
11328;SDS011;5719;42.714;23.732;2023-03-02T00:50:33;1.27;;;1.17;;
11328;SDS011;5719;42.714;23.732;2023-03-02T00:53:05;1.27;;;1.17;;
11328;SDS011;5719;42.714;23.732;2023-03-02T00:55:32;3.47;;;1.00;;
11328;SDS011;5719;42.714;23.732;2023-03-02T00:58:00;0.80;;;0.80;;
11328;SDS011;5719;42.714;23.732;2023-03-02T01:00:28;2.47;;;1.10;;
11328;SDS011;5719;42.714;23.732;2023-03-02T01:02:55;1.95;;;1.00;;
11328;SDS011;5719;42.714;23.732;2023-03-02T01:05:22;1.23;;;1.10;;
11328;SDS011;5719;42.714;23.732;2023-03-02T01:07:49;3.60;;;1.30;;
11328;SDS011;5719;42.714;23.732;2023-03-02T01:10:16;3.78;;;1.20;;
11328;SDS011;5719;42.714;23.732;2023-03-02T01:12:43;4.35;;;1.23;;
11328;SDS011;5719;42.714;23.732;2023-03-02T01:15:11;1.98;;;1.10;;
11328;SDS011;5719;42.714;23.732;2023-03-02T01:17:38;2.28;;;1.40;;
11328;SDS011;5719;42.714;23.732;2023-03-02T01:20:07;8.27;;;2.22;;
11328;SDS011;5719;42.714;23.732;2023-03-02T01:22:35;2.45;;;1.40;;
11328;SDS011;5719;42.714;23.732;2023-03-02T01:25:03;3.38;;;1.75;;
11328;SDS011;5719;42.714;23.732;2023-03-02T01:27:30;2.97;;;1.30;;
11328;SDS011;5719;42.714;23.732;2023-03-02T01:29:57;3.92;;;1.15;;
11328;SDS011;5719;42.714;23.732;2023-03-02T01:32:26;1.92;;;1.52;;
11328;SDS011;5719;42.714;23.732;2023-03-02T01:34:52;1.45;;;1.33;;
11328;SDS011;5719;42.714;23.732;2023-03-02T01:37:19;1.60;;;1.15;;
11328;SDS011;5719;42.714;23.732;2023-03-02T01:39:47;0.88;;;0.88;;
11328;SDS011;5719;42.714;23.732;2023-03-02T01:42:14;0.82;;;0.80;;
11328;SDS011;5719;42.714;23.732;2023-03-02T01:44:43;1.10;;;1.10;;
11328;SDS011;5719;42.714;23.732;2023-03-02T01:47:12;1.50;;;1.23;;
11328;SDS011;5719;42.714;23.732;2023-03-02T01:49:44;1.20;;;1.10;;
11328;SDS011;5719;42.714;23.732;2023-03-02T01:52:15;1.50;;;1.17;;
11328;SDS011;5719;42.714;23.732;2023-03-02T01:54:43;3.47;;;1.10;;
11328;SDS011;5719;42.714;23.732;2023-03-02T01:57:13;1.33;;;1.10;;
11328;SDS011;5719;42.714;23.732;2023-03-02T01:59:45;1.10;;;1.02;;
11328;SDS011;5719;42.714;23.732;2023-03-02T02:02:13;0.77;;;0.77;;
11328;SDS011;5719;42.714;23.732;2023-03-02T02:04:40;0.98;;;0.90;;
11328;SDS011;5719;42.714;23.732;2023-03-02T02:07:11;1.77;;;1.20;;
11328;SDS011;5719;42.714;23.732;2023-03-02T02:09:39;2.50;;;1.30;;
11328;SDS011;5719;42.714;23.732;2023-03-02T02:12:12;1.95;;;1.10;;
11328;SDS011;5719;42.714;23.732;2023-03-02T02:14:40;1.00;;;1.00;;
11328;SDS011;5719;42.714;23.732;2023-03-02T02:17:08;1.20;;;1.10;;
11328;SDS011;5719;42.714;23.732;2023-03-02T02:19:39;2.25;;;0.93;;
11328;SDS011;5719;42.714;23.732;2023-03-02T02:22:24;2.45;;;1.00;;
11328;SDS011;5719;42.714;23.732;2023-03-02T02:24:57;2.03;;;1.80;;
11328;SDS011;5719;42.714;23.732;2023-03-02T02:27:30;1.13;;;0.90;;
11328;SDS011;5719;42.714;23.732;2023-03-02T02:29:58;3.30;;;1.20;;
11328;SDS011;5719;42.714;23.732;2023-03-02T02:32:29;2.25;;;1.30;;
11328;SDS011;5719;42.714;23.732;2023-03-02T02:35:00;1.30;;;1.20;;
11328;SDS011;5719;42.714;23.732;2023-03-02T02:37:31;2.20;;;0.93;;
11328;SDS011;5719;42.714;23.732;2023-03-02T02:40:01;1.15;;;1.00;;
11328;SDS011;5719;42.714;23.732;2023-03-02T02:42:33;1.38;;;0.90;;
11328;SDS011;5719;42.714;23.732;2023-03-02T02:45:03;0.95;;;0.95;;
11328;SDS011;5719;42.714;23.732;2023-03-02T02:47:32;0.90;;;0.90;;
11328;SDS011;5719;42.714;23.732;2023-03-02T02:49:59;1.40;;;1.05;;
11328;SDS011;5719;42.714;23.732;2023-03-02T02:52:27;0.80;;;0.80;;
11328;SDS011;5719;42.714;23.732;2023-03-02T02:54:55;3.28;;;1.10;;
11328;SDS011;5719;42.714;23.732;2023-03-02T02:57:24;0.95;;;0.95;;
11328;SDS011;5719;42.714;23.732;2023-03-02T02:59:57;0.90;;;0.82;;
11328;SDS011;5719;42.714;23.732;2023-03-02T03:02:26;1.30;;;0.93;;
11328;SDS011;5719;42.714;23.732;2023-03-02T03:04:54;1.05;;;1.00;;
11328;SDS011;5719;42.714;23.732;2023-03-02T03:07:26;1.10;;;1.00;;
11328;SDS011;5719;42.714;23.732;2023-03-02T03:09:54;0.80;;;0.80;;
11328;SDS011;5719;42.714;23.732;2023-03-02T03:12:26;0.70;;;0.70;;
11328;SDS011;5719;42.714;23.732;2023-03-02T03:14:58;0.90;;;0.90;;
11328;SDS011;5719;42.714;23.732;2023-03-02T03:17:26;1.25;;;0.70;;
11328;SDS011;5719;42.714;23.732;2023-03-02T03:19:53;1.02;;;0.55;;
11328;SDS011;5719;42.714;23.732;2023-03-02T03:22:31;1.85;;;0.60;;
11328;SDS011;5719;42.714;23.732;2023-03-02T03:24:59;1.27;;;0.70;;
11328;SDS011;5719;42.714;23.732;2023-03-02T03:27:26;0.98;;;0.60;;
11328;SDS011;5719;42.714;23.732;2023-03-02T03:29:53;0.85;;;0.80;;
11328;SDS011;5719;42.714;23.732;2023-03-02T03:32:21;0.60;;;0.60;;
11328;SDS011;5719;42.714;23.732;2023-03-02T03:34:48;0.70;;;0.70;;
11328;SDS011;5719;42.714;23.732;2023-03-02T03:37:16;1.75;;;0.60;;
11328;SDS011;5719;42.714;23.732;2023-03-02T03:39:44;0.75;;;0.75;;
11328;SDS011;5719;42.714;23.732;2023-03-02T03:42:11;1.10;;;0.60;;
11328;SDS011;5719;42.714;23.732;2023-03-02T03:44:38;0.57;;;0.57;;
11328;SDS011;5719;42.714;23.732;2023-03-02T03:47:05;1.38;;;0.73;;
11328;SDS011;5719;42.714;23.732;2023-03-02T03:49:33;1.52;;;0.90;;
11328;SDS011;5719;42.714;23.732;2023-03-02T03:52:00;1.02;;;0.60;;
11328;SDS011;5719;42.714;23.732;2023-03-02T03:54:27;0.60;;;0.60;;
11328;SDS011;5719;42.714;23.732;2023-03-02T03:56:54;0.98;;;0.90;;
11328;SDS011;5719;42.714;23.732;2023-03-02T03:59:22;0.90;;;0.90;;
11328;SDS011;5719;42.714;23.732;2023-03-02T04:01:51;1.42;;;1.25;;
11328;SDS011;5719;42.714;23.732;2023-03-02T04:04:20;0.88;;;0.88;;
11328;SDS011;5719;42.714;23.732;2023-03-02T04:06:51;1.30;;;1.20;;
11328;SDS011;5719;42.714;23.732;2023-03-02T04:09:19;1.08;;;1.05;;
11328;SDS011;5719;42.714;23.732;2023-03-02T04:11:47;1.45;;;1.27;;
11328;SDS011;5719;42.714;23.732;2023-03-02T04:14:17;1.20;;;1.20;;
11328;SDS011;5719;42.714;23.732;2023-03-02T04:16:45;1.40;;;1.30;;
11328;SDS011;5719;42.714;23.732;2023-03-02T04:19:12;1.63;;;1.52;;
11328;SDS011;5719;42.714;23.732;2023-03-02T04:21:42;0.88;;;0.85;;
11328;SDS011;5719;42.714;23.732;2023-03-02T04:24:12;1.23;;;1.13;;
11328;SDS011;5719;42.714;23.732;2023-03-02T04:26:42;2.65;;;1.08;;
11328;SDS011;5719;42.714;23.732;2023-03-02T04:29:10;0.93;;;0.93;;
11328;SDS011;5719;42.714;23.732;2023-03-02T04:31:38;1.30;;;1.30;;
11328;SDS011;5719;42.714;23.732;2023-03-02T04:34:05;1.00;;;1.00;;
11328;SDS011;5719;42.714;23.732;2023-03-02T04:36:33;1.25;;;1.25;;
11328;SDS011;5719;42.714;23.732;2023-03-02T04:39:02;1.55;;;1.45;;
11328;SDS011;5719;42.714;23.732;2023-03-02T04:41:31;1.25;;;1.25;;
11328;SDS011;5719;42.714;23.732;2023-03-02T04:43:58;1.48;;;1.38;;
11328;SDS011;5719;42.714;23.732;2023-03-02T04:46:25;1.08;;;1.08;;
11328;SDS011;5719;42.714;23.732;2023-03-02T04:48:53;1.10;;;1.10;;
11328;SDS011;5719;42.714;23.732;2023-03-02T04:51:21;1.60;;;1.50;;
11328;SDS011;5719;42.714;23.732;2023-03-02T04:53:50;1.60;;;1.42;;
11328;SDS011;5719;42.714;23.732;2023-03-02T04:56:18;1.33;;;1.23;;
11328;SDS011;5719;42.714;23.732;2023-03-02T04:58:47;4.97;;;1.45;;
11328;SDS011;5719;42.714;23.732;2023-03-02T05:01:15;1.45;;;1.02;;
11328;SDS011;5719;42.714;23.732;2023-03-02T05:03:44;1.45;;;1.00;;
11328;SDS011;5719;42.714;23.732;2023-03-02T05:06:11;1.30;;;1.13;;
11328;SDS011;5719;42.714;23.732;2023-03-02T05:08:38;1.60;;;1.05;;
11328;SDS011;5719;42.714;23.732;2023-03-02T05:11:05;3.47;;;1.10;;
11328;SDS011;5719;42.714;23.732;2023-03-02T05:13:33;1.00;;;1.00;;
11328;SDS011;5719;42.714;23.732;2023-03-02T05:16:02;1.50;;;1.40;;
11328;SDS011;5719;42.714;23.732;2023-03-02T05:18:29;1.70;;;1.17;;
11328;SDS011;5719;42.714;23.732;2023-03-02T05:20:56;2.72;;;1.38;;
11328;SDS011;5719;42.714;23.732;2023-03-02T05:23:22;2.60;;;2.05;;
11328;SDS011;5719;42.714;23.732;2023-03-02T05:25:51;1.73;;;1.58;;
11328;SDS011;5719;42.714;23.732;2023-03-02T05:28:19;5.50;;;2.03;;
11328;SDS011;5719;42.714;23.732;2023-03-02T05:30:47;1.90;;;1.70;;
11328;SDS011;5719;42.714;23.732;2023-03-02T05:33:16;3.92;;;2.10;;
11328;SDS011;5719;42.714;23.732;2023-03-02T05:35:43;2.60;;;2.40;;
11328;SDS011;5719;42.714;23.732;2023-03-02T05:38:10;5.78;;;2.40;;
11328;SDS011;5719;42.714;23.732;2023-03-02T05:40:37;4.55;;;2.40;;
11328;SDS011;5719;42.714;23.732;2023-03-02T05:43:06;5.10;;;2.50;;
11328;SDS011;5719;42.714;23.732;2023-03-02T05:45:35;3.75;;;2.30;;
11328;SDS011;5719;42.714;23.732;2023-03-02T05:48:03;2.65;;;2.45;;
11328;SDS011;5719;42.714;23.732;2023-03-02T05:50:32;4.90;;;2.65;;
11328;SDS011;5719;42.714;23.732;2023-03-02T05:52:59;3.13;;;2.60;;
11328;SDS011;5719;42.714;23.732;2023-03-02T05:55:26;3.38;;;2.90;;
11328;SDS011;5719;42.714;23.732;2023-03-02T05:57:54;3.03;;;2.72;;
11328;SDS011;5719;42.714;23.732;2023-03-02T06:00:21;3.13;;;2.60;;
11328;SDS011;5719;42.714;23.732;2023-03-02T06:02:48;3.17;;;2.63;;
11328;SDS011;5719;42.714;23.732;2023-03-02T06:05:16;3.58;;;2.88;;
11328;SDS011;5719;42.714;23.732;2023-03-02T06:07:45;6.05;;;3.50;;
11328;SDS011;5719;42.714;23.732;2023-03-02T06:10:12;3.38;;;3.08;;
11328;SDS011;5719;42.714;23.732;2023-03-02T06:12:40;5.85;;;3.42;;
11328;SDS011;5719;42.714;23.732;2023-03-02T06:15:07;4.60;;;3.22;;
11328;SDS011;5719;42.714;23.732;2023-03-02T06:17:34;5.20;;;4.07;;
11328;SDS011;5719;42.714;23.732;2023-03-02T06:20:01;8.60;;;5.15;;
11328;SDS011;5719;42.714;23.732;2023-03-02T06:22:32;7.70;;;4.00;;
11328;SDS011;5719;42.714;23.732;2023-03-02T06:25:00;5.40;;;3.55;;
11328;SDS011;5719;42.714;23.732;2023-03-02T06:27:27;4.40;;;4.00;;
11328;SDS011;5719;42.714;23.732;2023-03-02T06:29:54;5.35;;;4.30;;
11328;SDS011;5719;42.714;23.732;2023-03-02T06:32:20;9.63;;;3.78;;
11328;SDS011;5719;42.714;23.732;2023-03-02T06:34:47;8.02;;;4.28;;
11328;SDS011;5719;42.714;23.732;2023-03-02T06:37:14;4.95;;;3.80;;
11328;SDS011;5719;42.714;23.732;2023-03-02T06:39:41;7.32;;;4.18;;
11328;SDS011;5719;42.714;23.732;2023-03-02T06:42:09;4.97;;;4.00;;
11328;SDS011;5719;42.714;23.732;2023-03-02T06:44:36;4.88;;;3.70;;
11328;SDS011;5719;42.714;23.732;2023-03-02T06:47:03;7.53;;;4.00;;
11328;SDS011;5719;42.714;23.732;2023-03-02T06:49:30;8.25;;;4.03;;
11328;SDS011;5719;42.714;23.732;2023-03-02T06:51:57;5.57;;;4.00;;
11328;SDS011;5719;42.714;23.732;2023-03-02T06:54:23;4.40;;;3.30;;
11328;SDS011;5719;42.714;23.732;2023-03-02T06:56:50;4.13;;;3.70;;
11328;SDS011;5719;42.714;23.732;2023-03-02T06:59:19;4.95;;;3.80;;
11328;SDS011;5719;42.714;23.732;2023-03-02T07:01:45;5.75;;;3.92;;
11328;SDS011;5719;42.714;23.732;2023-03-02T07:04:14;4.55;;;3.92;;
11328;SDS011;5719;42.714;23.732;2023-03-02T07:06:41;5.65;;;3.90;;
11328;SDS011;5719;42.714;23.732;2023-03-02T07:09:08;5.55;;;3.65;;
11328;SDS011;5719;42.714;23.732;2023-03-02T07:11:35;4.47;;;3.10;;
11328;SDS011;5719;42.714;23.732;2023-03-02T07:14:02;8.38;;;3.78;;
11328;SDS011;5719;42.714;23.732;2023-03-02T07:16:31;3.67;;;3.20;;
11328;SDS011;5719;42.714;23.732;2023-03-02T07:18:59;3.35;;;2.83;;
11328;SDS011;5719;42.714;23.732;2023-03-02T07:21:26;3.15;;;2.85;;
11328;SDS011;5719;42.714;23.732;2023-03-02T07:23:53;3.30;;;2.70;;
11328;SDS011;5719;42.714;23.732;2023-03-02T07:26:19;3.72;;;3.08;;
11328;SDS011;5719;42.714;23.732;2023-03-02T07:28:46;3.15;;;2.85;;
11328;SDS011;5719;42.714;23.732;2023-03-02T07:31:13;6.07;;;3.05;;
11328;SDS011;5719;42.714;23.732;2023-03-02T07:33:41;3.47;;;3.13;;
11328;SDS011;5719;42.714;23.732;2023-03-02T07:36:08;5.43;;;2.88;;
11328;SDS011;5719;42.714;23.732;2023-03-02T07:38:37;3.78;;;3.17;;
11328;SDS011;5719;42.714;23.732;2023-03-02T07:41:07;3.63;;;3.17;;
11328;SDS011;5719;42.714;23.732;2023-03-02T07:43:34;2.65;;;2.40;;
11328;SDS011;5719;42.714;23.732;2023-03-02T07:46:01;3.83;;;3.00;;
11328;SDS011;5719;42.714;23.732;2023-03-02T07:48:28;4.47;;;3.00;;
11328;SDS011;5719;42.714;23.732;2023-03-02T07:50:58;3.20;;;2.78;;
11328;SDS011;5719;42.714;23.732;2023-03-02T07:53:25;4.38;;;3.60;;
11328;SDS011;5719;42.714;23.732;2023-03-02T07:55:52;4.05;;;3.13;;
11328;SDS011;5719;42.714;23.732;2023-03-02T07:58:19;7.00;;;3.47;;
11328;SDS011;5719;42.714;23.732;2023-03-02T08:00:46;5.22;;;2.63;;
11328;SDS011;5719;42.714;23.732;2023-03-02T08:03:13;3.38;;;3.08;;
11328;SDS011;5719;42.714;23.732;2023-03-02T08:05:40;6.35;;;2.70;;
11328;SDS011;5719;42.714;23.732;2023-03-02T08:08:09;2.75;;;2.50;;
11328;SDS011;5719;42.714;23.732;2023-03-02T08:10:36;3.65;;;2.75;;
11328;SDS011;5719;42.714;23.732;2023-03-02T08:13:03;2.63;;;2.42;;
11328;SDS011;5719;42.714;23.732;2023-03-02T08:15:30;3.17;;;2.90;;
11328;SDS011;5719;42.714;23.732;2023-03-02T08:17:57;2.70;;;2.50;;
11328;SDS011;5719;42.714;23.732;2023-03-02T08:20:24;2.72;;;2.53;;
11328;SDS011;5719;42.714;23.732;2023-03-02T08:22:51;5.35;;;2.20;;
11328;SDS011;5719;42.714;23.732;2023-03-02T08:25:19;2.70;;;2.50;;
11328;SDS011;5719;42.714;23.732;2023-03-02T08:27:46;2.42;;;2.20;;
11328;SDS011;5719;42.714;23.732;2023-03-02T08:30:13;2.45;;;2.25;;
11328;SDS011;5719;42.714;23.732;2023-03-02T08:32:40;2.63;;;2.42;;
11328;SDS011;5719;42.714;23.732;2023-03-02T08:35:07;2.47;;;2.28;;
11328;SDS011;5719;42.714;23.732;2023-03-02T08:37:35;2.45;;;2.25;;
11328;SDS011;5719;42.714;23.732;2023-03-02T08:40:01;2.50;;;2.30;;
11328;SDS011;5719;42.714;23.732;2023-03-02T08:42:30;3.75;;;3.45;;
11328;SDS011;5719;42.714;23.732;2023-03-02T08:44:57;2.20;;;2.10;;
11328;SDS011;5719;42.714;23.732;2023-03-02T08:47:24;2.70;;;2.50;;
11328;SDS011;5719;42.714;23.732;2023-03-02T08:49:51;4.07;;;3.03;;
11328;SDS011;5719;42.714;23.732;2023-03-02T08:52:18;3.00;;;2.65;;
11328;SDS011;5719;42.714;23.732;2023-03-02T08:54:45;3.47;;;2.72;;
11328;SDS011;5719;42.714;23.732;2023-03-02T08:57:12;3.08;;;2.83;;
11328;SDS011;5719;42.714;23.732;2023-03-02T08:59:40;3.33;;;3.03;;
11328;SDS011;5719;42.714;23.732;2023-03-02T09:02:09;3.30;;;3.00;;
11328;SDS011;5719;42.714;23.732;2023-03-02T09:04:37;3.38;;;3.08;;
11328;SDS011;5719;42.714;23.732;2023-03-02T09:07:04;3.83;;;3.50;;
11328;SDS011;5719;42.714;23.732;2023-03-02T09:09:31;5.72;;;2.92;;
11328;SDS011;5719;42.714;23.732;2023-03-02T09:11:58;6.07;;;3.40;;
11328;SDS011;5719;42.714;23.732;2023-03-02T09:14:25;3.45;;;3.15;;
11328;SDS011;5719;42.714;23.732;2023-03-02T09:16:53;5.28;;;3.13;;
11328;SDS011;5719;42.714;23.732;2023-03-02T09:19:20;3.60;;;3.30;;
11328;SDS011;5719;42.714;23.732;2023-03-02T09:21:47;4.82;;;2.72;;
11328;SDS011;5719;42.714;23.732;2023-03-02T09:24:14;4.55;;;3.70;;
11328;SDS011;5719;42.714;23.732;2023-03-02T09:26:41;5.18;;;2.70;;
11328;SDS011;5719;42.714;23.732;2023-03-02T09:29:08;3.63;;;3.00;;
11328;SDS011;5719;42.714;23.732;2023-03-02T09:31:35;3.70;;;2.75;;
11328;SDS011;5719;42.714;23.732;2023-03-02T09:34:04;2.90;;;2.70;;
11328;SDS011;5719;42.714;23.732;2023-03-02T09:36:32;3.70;;;3.03;;
11328;SDS011;5719;42.714;23.732;2023-03-02T09:38:59;2.42;;;2.22;;
11328;SDS011;5719;42.714;23.732;2023-03-02T09:41:32;2.80;;;2.60;;
11328;SDS011;5719;42.714;23.732;2023-03-02T09:44:22;2.95;;;2.47;;
11328;SDS011;5719;42.714;23.732;2023-03-02T09:47:07;3.70;;;2.55;;
11328;SDS011;5719;42.714;23.732;2023-03-02T09:49:47;2.58;;;1.77;;
11328;SDS011;5719;42.714;23.732;2023-03-02T09:52:26;3.05;;;2.45;;
11328;SDS011;5719;42.714;23.732;2023-03-02T09:54:59;3.45;;;2.20;;
11328;SDS011;5719;42.714;23.732;2023-03-02T09:57:32;3.08;;;2.20;;
11328;SDS011;5719;42.714;23.732;2023-03-02T10:00:03;2.97;;;2.42;;
11328;SDS011;5719;42.714;23.732;2023-03-02T10:02:39;2.78;;;2.30;;
11328;SDS011;5719;42.714;23.732;2023-03-02T10:05:15;3.22;;;2.65;;
11328;SDS011;5719;42.714;23.732;2023-03-02T10:07:44;2.88;;;2.50;;
11328;SDS011;5719;42.714;23.732;2023-03-02T10:10:17;4.00;;;2.60;;
11328;SDS011;5719;42.714;23.732;2023-03-02T10:12:53;6.28;;;2.28;;
11328;SDS011;5719;42.714;23.732;2023-03-02T10:15:33;3.28;;;2.97;;
11328;SDS011;5719;42.714;23.732;2023-03-02T10:18:08;4.03;;;2.58;;
11328;SDS011;5719;42.714;23.732;2023-03-02T10:20:45;3.90;;;3.15;;
11328;SDS011;5719;42.714;23.732;2023-03-02T10:23:23;3.83;;;3.03;;
11328;SDS011;5719;42.714;23.732;2023-03-02T10:26:19;4.00;;;2.88;;
11328;SDS011;5719;42.714;23.732;2023-03-02T10:28:54;4.40;;;3.20;;
11328;SDS011;5719;42.714;23.732;2023-03-02T10:31:26;4.88;;;3.20;;
11328;SDS011;5719;42.714;23.732;2023-03-02T10:33:54;3.35;;;3.03;;
11328;SDS011;5719;42.714;23.732;2023-03-02T10:36:24;5.65;;;3.33;;
11328;SDS011;5719;42.714;23.732;2023-03-02T10:38:52;4.30;;;3.70;;
11328;SDS011;5719;42.714;23.732;2023-03-02T10:41:22;5.65;;;4.20;;
11328;SDS011;5719;42.714;23.732;2023-03-02T10:43:53;5.88;;;3.95;;
11328;SDS011;5719;42.714;23.732;2023-03-02T10:46:23;6.30;;;3.95;;
11328;SDS011;5719;42.714;23.732;2023-03-02T10:48:50;4.68;;;3.67;;
11328;SDS011;5719;42.714;23.732;2023-03-02T10:51:21;7.38;;;4.60;;
11328;SDS011;5719;42.714;23.732;2023-03-02T10:54:01;7.75;;;4.00;;
11328;SDS011;5719;42.714;23.732;2023-03-02T10:56:30;5.70;;;3.95;;
11328;SDS011;5719;42.714;23.732;2023-03-02T10:58:57;7.45;;;4.45;;
11328;SDS011;5719;42.714;23.732;2023-03-02T11:01:27;5.85;;;3.85;;
11328;SDS011;5719;42.714;23.732;2023-03-02T11:03:55;6.57;;;4.50;;
11328;SDS011;5719;42.714;23.732;2023-03-02T11:06:24;9.65;;;5.80;;
11328;SDS011;5719;42.714;23.732;2023-03-02T11:08:59;14.70;;;5.90;;
11328;SDS011;5719;42.714;23.732;2023-03-02T11:11:27;9.27;;;6.55;;
11328;SDS011;5719;42.714;23.732;2023-03-02T11:13:55;9.18;;;6.90;;
11328;SDS011;5719;42.714;23.732;2023-03-02T11:16:33;10.77;;;6.80;;
11328;SDS011;5719;42.714;23.732;2023-03-02T11:19:01;10.30;;;6.28;;
11328;SDS011;5719;42.714;23.732;2023-03-02T11:21:34;9.27;;;6.85;;
11328;SDS011;5719;42.714;23.732;2023-03-02T11:26:37;7.68;;;5.00;;
11328;SDS011;5719;42.714;23.732;2023-03-02T11:29:11;7.50;;;5.45;;
11328;SDS011;5719;42.714;23.732;2023-03-02T11:31:48;12.45;;;4.65;;
11328;SDS011;5719;42.714;23.732;2023-03-02T11:34:23;6.20;;;5.07;;
11328;SDS011;5719;42.714;23.732;2023-03-02T11:37:02;7.72;;;5.13;;
11328;SDS011;5719;42.714;23.732;2023-03-02T11:42:42;9.25;;;5.57;;
11328;SDS011;5719;42.714;23.732;2023-03-02T11:45:16;9.25;;;5.60;;
11328;SDS011;5719;42.714;23.732;2023-03-02T11:47:48;8.20;;;5.25;;
11328;SDS011;5719;42.714;23.732;2023-03-02T11:50:20;8.77;;;5.57;;
11328;SDS011;5719;42.714;23.732;2023-03-02T11:52:50;6.70;;;5.18;;
11328;SDS011;5719;42.714;23.732;2023-03-02T11:55:21;7.93;;;5.55;;
11328;SDS011;5719;42.714;23.732;2023-03-02T11:57:49;9.82;;;6.10;;
11328;SDS011;5719;42.714;23.732;2023-03-02T12:00:23;8.27;;;5.97;;
11328;SDS011;5719;42.714;23.732;2023-03-02T12:02:58;8.90;;;6.15;;
11328;SDS011;5719;42.714;23.732;2023-03-02T12:05:30;9.82;;;6.63;;
11328;SDS011;5719;42.714;23.732;2023-03-02T12:08:02;9.57;;;6.57;;
11328;SDS011;5719;42.714;23.732;2023-03-02T12:10:32;8.93;;;6.03;;
11328;SDS011;5719;42.714;23.732;2023-03-02T12:13:06;9.98;;;6.90;;
11328;SDS011;5719;42.714;23.732;2023-03-02T12:15:42;9.45;;;6.07;;
11328;SDS011;5719;42.714;23.732;2023-03-02T12:21:08;9.40;;;5.97;;
11328;SDS011;5719;42.714;23.732;2023-03-02T12:23:39;7.97;;;5.50;;
11328;SDS011;5719;42.714;23.732;2023-03-02T12:26:23;9.30;;;6.03;;
11328;SDS011;5719;42.714;23.732;2023-03-02T12:28:57;8.40;;;5.40;;
11328;SDS011;5719;42.714;23.732;2023-03-02T12:31:37;7.45;;;4.63;;
11328;SDS011;5719;42.714;23.732;2023-03-02T12:34:10;6.72;;;4.68;;
11328;SDS011;5719;42.714;23.732;2023-03-02T12:37:03;5.70;;;4.50;;
11328;SDS011;5719;42.714;23.732;2023-03-02T12:39:46;4.82;;;3.83;;
11328;SDS011;5719;42.714;23.732;2023-03-02T12:42:38;5.07;;;3.97;;
11328;SDS011;5719;42.714;23.732;2023-03-02T12:45:36;5.25;;;3.83;;
11328;SDS011;5719;42.714;23.732;2023-03-02T12:48:21;4.78;;;3.75;;
11328;SDS011;5719;42.714;23.732;2023-03-02T12:50:54;5.43;;;3.38;;
11328;SDS011;5719;42.714;23.732;2023-03-02T12:53:26;4.23;;;3.20;;
11328;SDS011;5719;42.714;23.732;2023-03-02T12:55:55;3.22;;;2.85;;
11328;SDS011;5719;42.714;23.732;2023-03-02T12:58:23;5.10;;;3.30;;
11328;SDS011;5719;42.714;23.732;2023-03-02T13:00:53;3.95;;;2.50;;
11328;SDS011;5719;42.714;23.732;2023-03-02T13:03:22;4.00;;;2.85;;
11328;SDS011;5719;42.714;23.732;2023-03-02T13:05:50;3.83;;;2.70;;
11328;SDS011;5719;42.714;23.732;2023-03-02T13:08:26;3.83;;;3.00;;
11328;SDS011;5719;42.714;23.732;2023-03-02T13:10:56;3.15;;;2.50;;
11328;SDS011;5719;42.714;23.732;2023-03-02T13:13:26;4.35;;;2.15;;
11328;SDS011;5719;42.714;23.732;2023-03-02T13:16:00;2.63;;;2.00;;
11328;SDS011;5719;42.714;23.732;2023-03-02T13:18:29;2.80;;;2.47;;
11328;SDS011;5719;42.714;23.732;2023-03-02T13:20:58;2.90;;;2.05;;
11328;SDS011;5719;42.714;23.732;2023-03-02T13:23:27;3.08;;;2.05;;
11328;SDS011;5719;42.714;23.732;2023-03-02T13:26:00;2.40;;;2.20;;
11328;SDS011;5719;42.714;23.732;2023-03-02T13:28:29;4.05;;;2.20;;
11328;SDS011;5719;42.714;23.732;2023-03-02T13:30:58;2.65;;;2.00;;
11328;SDS011;5719;42.714;23.732;2023-03-02T13:33:28;2.05;;;1.95;;
11328;SDS011;5719;42.714;23.732;2023-03-02T13:35:56;2.88;;;2.13;;
11328;SDS011;5719;42.714;23.732;2023-03-02T13:38:24;2.25;;;2.05;;
11328;SDS011;5719;42.714;23.732;2023-03-02T13:40:53;2.60;;;2.40;;
11328;SDS011;5719;42.714;23.732;2023-03-02T13:43:33;3.47;;;2.25;;
11328;SDS011;5719;42.714;23.732;2023-03-02T13:46:03;2.25;;;1.95;;
11328;SDS011;5719;42.714;23.732;2023-03-02T13:48:31;2.13;;;1.73;;
11328;SDS011;5719;42.714;23.732;2023-03-02T13:50:59;3.25;;;1.88;;
11328;SDS011;5719;42.714;23.732;2023-03-02T13:53:28;2.08;;;1.90;;
11328;SDS011;5719;42.714;23.732;2023-03-02T13:55:58;2.25;;;1.90;;
11328;SDS011;5719;42.714;23.732;2023-03-02T13:58:26;2.78;;;2.00;;
11328;SDS011;5719;42.714;23.732;2023-03-02T14:00:56;1.65;;;1.50;;
11328;SDS011;5719;42.714;23.732;2023-03-02T14:03:25;3.55;;;1.63;;
11328;SDS011;5719;42.714;23.732;2023-03-02T14:05:54;1.95;;;1.60;;
11328;SDS011;5719;42.714;23.732;2023-03-02T14:08:22;2.92;;;1.58;;
11328;SDS011;5719;42.714;23.732;2023-03-02T14:10:50;2.00;;;1.77;;
11328;SDS011;5719;42.714;23.732;2023-03-02T14:13:19;1.73;;;1.63;;
11328;SDS011;5719;42.714;23.732;2023-03-02T14:15:50;3.47;;;1.60;;
11328;SDS011;5719;42.714;23.732;2023-03-02T14:18:24;4.80;;;2.00;;
11328;SDS011;5719;42.714;23.732;2023-03-02T14:20:53;3.28;;;1.80;;
11328;SDS011;5719;42.714;23.732;2023-03-02T14:23:21;1.92;;;1.50;;
11328;SDS011;5719;42.714;23.732;2023-03-02T14:25:48;2.13;;;1.60;;
11328;SDS011;5719;42.714;23.732;2023-03-02T14:28:17;3.15;;;1.90;;
11328;SDS011;5719;42.714;23.732;2023-03-02T14:30:50;1.73;;;1.63;;
11328;SDS011;5719;42.714;23.732;2023-03-02T14:33:18;2.80;;;1.65;;
11328;SDS011;5719;42.714;23.732;2023-03-02T14:35:48;3.38;;;1.85;;
11328;SDS011;5719;42.714;23.732;2023-03-02T14:38:16;3.22;;;1.65;;
11328;SDS011;5719;42.714;23.732;2023-03-02T14:40:43;3.60;;;1.85;;
11328;SDS011;5719;42.714;23.732;2023-03-02T14:43:10;2.40;;;2.20;;
11328;SDS011;5719;42.714;23.732;2023-03-02T14:45:37;4.07;;;2.30;;
11328;SDS011;5719;42.714;23.732;2023-03-02T14:48:04;2.50;;;2.30;;
11328;SDS011;5719;42.714;23.732;2023-03-02T14:50:31;3.75;;;2.17;;
11328;SDS011;5719;42.714;23.732;2023-03-02T14:53:05;4.68;;;2.38;;
11328;SDS011;5719;42.714;23.732;2023-03-02T14:55:35;2.33;;;2.10;;
11328;SDS011;5719;42.714;23.732;2023-03-02T14:58:09;2.97;;;2.03;;
11328;SDS011;5719;42.714;23.732;2023-03-02T15:00:38;2.35;;;2.15;;
11328;SDS011;5719;42.714;23.732;2023-03-02T15:03:05;2.97;;;2.35;;
11328;SDS011;5719;42.714;23.732;2023-03-02T15:05:32;3.35;;;2.47;;
11328;SDS011;5719;42.714;23.732;2023-03-02T15:07:59;2.80;;;2.15;;
11328;SDS011;5719;42.714;23.732;2023-03-02T15:10:27;3.10;;;2.38;;